Flight Track Log - Related Links

Times and Time Zones

All times are in EDT time to prevent confusion due to time zone crossing. See the UAL4236 flight status page for this flight to view local times or setup timezone preferences in your user account.

Time Position Orientation Groundspeed Altitude Reporting Facility
EDT Latitude Longitude Course Direction KTS MPH feet Rate Location/Type
Sun 09:54:18 AM 29.9572 -95.3392 276° West 163 188 800  Level Houston Center
Sun 09:54:37 AM 29.9425 -95.3386 178° South 180 207 1,600 1,975 Climbing Houston Center
Sun 09:55:37 AM 29.9033 -95.3939 231° Southwest 247 284 3,400 2,000 Climbing Houston Center
Sun 09:56:10 AM 29.8900 -95.4231 242° Southwest 236 272 4,700 2,557 Climbing Houston Center
Sun 09:56:38 AM 29.8694 -95.4608 238° Southwest 239 275 6,000 2,066 Climbing Houston Center
Sun 09:57:00 AM 30.0275 -95.7469 277° West  Level FlightAware Approximate
Sun 09:57:11 AM 29.8667 -95.4958 265° West 254 292 6,800  Level Houston Center
Sun 09:57:39 AM 29.8789 -95.5414 287° West 274 315 8,200 2,557 Climbing Houston Center
Sun 09:58:00 AM 30.0376 -95.8508 276° West  Level FlightAware Approximate
Sun 09:58:12 AM 29.8908 -95.5764 291° West 271 312 9,400  Level Houston Center
Sun 09:59:00 AM 30.0463 -95.9549 276° West  Level FlightAware Approximate
Sun 09:59:14 AM 29.9222 -95.6572 294° West 275 316 10,900  Level Houston Center
Sun 10:00:15 AM 29.9556 -95.7508 292° West 312 359 11,900 1,033 Climbing Houston Center
Sun 10:01:16 AM 29.9936 -95.8522 293° West 341 392 13,000 1,230 Climbing Houston Center
Sun 10:02:17 AM 30.0400 -95.9789 293° West 357 411 14,400 1,220 Climbing Houston Center
Sun 10:03:19 AM 30.0750 -96.0789 292° West 360 414 15,500 1,122 Climbing Houston Center
Sun 10:04:20 AM 30.0911 -96.1914 279° West 358 412 16,700 1,131 Climbing Houston Center
Sun 10:05:21 AM 30.1075 -96.3028 280° West 355 409 17,800 1,317 Climbing Houston Center
Sun 10:06:23 AM 30.1261 -96.4169 281° West 343 395 19,400 1,463 Climbing Houston Center
Sun 10:07:24 AM 30.1419 -96.5242 280° West 336 387 20,800 1,366 Climbing Houston Center
Sun 10:08:26 AM 30.1581 -96.6297 280° West 331 381 22,200 1,366 Climbing Houston Center
Sun 10:09:27 AM 30.1742 -96.7350 280° West 329 379 23,600 1,377 Climbing Houston Center
Sun 10:10:28 AM 30.1889 -96.8381 279° West 324 373 25,000 1,512 Climbing Houston Center
Sun 10:11:30 AM 30.2058 -96.9564 279° West 317 365 26,700 1,415 Climbing Houston Center
Sun 10:12:31 AM 30.2214 -97.0547 280° West 310 357 27,900 1,073 Climbing Houston Center
Sun 10:13:33 AM 30.2356 -97.1514 280° West 304 350 28,900 976 Climbing Houston Center
Sun 10:14:34 AM 30.2497 -97.2492 280° West 305 351 29,900 976 Climbing Houston Center
Sun 10:15:36 AM 30.2675 -97.3478 282° West 309 356 30,900 976 Climbing Houston Center
Sun 10:16:37 AM 30.2867 -97.4458 283° West 309 356 31,900 1,024 Climbing Houston Center
Sun 10:17:39 AM 30.3067 -97.5456 283° West 312 359 33,000 1,024 Climbing Houston Center
Sun 10:18:40 AM 30.3258 -97.6461 282° West 314 361 34,000 976 Climbing Houston Center
Sun 10:19:42 AM 30.3444 -97.7442 282° West 309 356 35,000 927 Climbing Houston Center
Sun 10:20:43 AM 30.3633 -97.8392 283° West 302 348 35,900 488 Climbing Houston Center
Sun 10:21:45 AM 30.3817 -97.9356 282° West 301 346 36,000 49 Climbing Houston Center
Sun 10:22:46 AM 30.4008 -98.0375 282° West 317 365 36,000  Level Houston Center
Sun 10:23:48 AM 30.4200 -98.1450 282° West 332 382 36,000  Level Houston Center
Sun 10:24:49 AM 30.4422 -98.2508 284° West 335 386 36,000  Level Houston Center
Sun 10:25:51 AM 30.4608 -98.3569 282° West 333 383 36,000  Level Houston Center
Sun 10:26:53 AM 30.4839 -98.4797 282° West 332 382 36,000  Level Houston Center
Sun 10:27:54 AM 30.5036 -98.5842 282° West 330 380 36,000  Level Houston Center
Sun 10:28:56 AM 30.5225 -98.6900 282° West 333 383 36,000  Level Houston Center
Sun 10:29:57 AM 30.5428 -98.7950 283° West 331 381 36,000  Level Houston Center
Sun 10:30:59 AM 30.5625 -98.9008 282° West 332 382 36,000  Level Houston Center
Sun 10:32:01 AM 30.5819 -99.0069 282° West 332 382 36,000  Level Houston Center
Sun 10:33:02 AM 30.6025 -99.1128 283° West 335 386 36,000  Level Houston Center
Sun 10:34:04 AM 30.6208 -99.2175 282° West 336 387 36,000  Level Houston Center
Sun 10:35:05 AM 30.6408 -99.3242 282° West 339 390 36,000  Level Houston Center
Sun 10:36:07 AM 30.6603 -99.4328 282° West 344 396 36,000  Level Houston Center
Sun 10:37:09 AM 30.6836 -99.5617 282° West 343 395 36,000  Level Houston Center
Sun 10:38:10 AM 30.7022 -99.6700 281° West 344 396 36,000  Level Houston Center
Sun 10:39:12 AM 30.7208 -99.7767 281° West 340 391 36,000  Level Houston Center
Sun 10:40:13 AM 30.7400 -99.8867 281° West 349 402 36,000  Level Houston Center
Sun 10:41:15 AM 30.7583 -99.9961 281° West 350 403 36,000  Level Houston Center
Sun 10:42:17 AM 30.7786 -100.1064 282° West 353 406 36,000  Level Houston Center
Sun 10:43:18 AM 30.8014 -100.2375 281° West 348 400 36,000  Level Houston Center
Sun 10:44:20 AM 30.8194 -100.3492 281° West 353 406 36,000  Level Houston Center
Sun 10:45:21 AM 30.8392 -100.4611 282° West 356 410 36,000  Level Houston Center
Sun 10:46:23 AM 30.8575 -100.5717 281° West 351 404 36,000  Level Houston Center
Sun 10:47:24 AM 30.8764 -100.6844 281° West 358 412 36,000  Level Houston Center
Sun 10:48:26 AM 30.8967 -100.7956 282° West 356 410 36,000  Level Houston Center
Sun 10:49:28 AM 30.9144 -100.9081 280° West 354 407 36,000  Level Houston Center
Sun 10:50:29 AM 30.9378 -101.0431 281° West 353 406 36,000  Level Houston Center
Sun 10:51:31 AM 30.9547 -101.1542 280° West 349 402 36,000  Level Houston Center
Sun 10:52:33 AM 30.9756 -101.2622 283° West 345 397 36,000  Level Houston Center
Sun 10:53:34 AM 30.9906 -101.3647 280° West 343 395 36,000  Level Houston Center
Sun 10:53:59 AM 30.9950 -101.4086 277° West 346 398 36,000  Level Albuquerque Center
Sun 10:55:00 AM 31.0178 -101.5428 281° West 349 402 36,000  Level Albuquerque Center
Sun 10:56:02 AM 31.0361 -101.6536 281° West 350 403 36,000  Level Albuquerque Center
Sun 10:57:03 AM 31.0539 -101.7647 281° West 349 402 36,000  Level Albuquerque Center
Sun 10:58:05 AM 31.0717 -101.8783 280° West 352 405 36,000  Level Albuquerque Center
Sun 10:59:07 AM 31.0900 -101.9975 280° West 372 428 36,000  Level Albuquerque Center
Sun 11:00:08 AM 31.1092 -102.1111 281° West 364 419 36,000  Level Albuquerque Center
Sun 11:01:10 AM 31.1256 -102.2264 279° West 360 414 36,000  Level Albuquerque Center
Sun 11:02:11 AM 31.1447 -102.3419 281° West 362 417 36,000  Level Albuquerque Center
Sun 11:03:13 AM 31.1661 -102.4814 280° West 363 418 36,000  Level Albuquerque Center
Sun 11:04:15 AM 31.1803 -102.5828 279° West 363 418 36,000  Level Albuquerque Center
Sun 11:05:16 AM 31.2022 -102.7214 281° West 361 415 36,000  Level Albuquerque Center
Sun 11:06:18 AM 31.2194 -102.8378 280° West 362 417 36,000  Level Albuquerque Center
Sun 11:07:20 AM 31.2372 -102.9539 280° West 364 419 36,000  Level Albuquerque Center
Sun 11:08:22 AM 31.2339 -103.0750 268° West 372 428 36,000  Level Albuquerque Center
Sun 11:09:23 AM 31.2306 -103.1936 268° West 370 426 36,000  Level Albuquerque Center
Sun 11:10:25 AM 31.2278 -103.3131 268° West 369 425 36,000 -290 Level Albuquerque Center
Sun 11:11:27 AM 31.2475 -103.4294 281° West 364 419 35,400 -1,161 Descending Albuquerque Center
Sun 11:12:29 AM 31.2703 -103.5728 281° West 372 428 33,600 -1,610 Descending Albuquerque Center
Sun 11:13:30 AM 31.2883 -103.6931 280° West 376 433 32,100 -1,463 Descending Albuquerque Center
Sun 11:14:32 AM 31.3053 -103.8025 280° West 376 433 30,600 -1,016 Descending Albuquerque Center
Sun 11:15:34 AM 31.3231 -103.9244 280° West 380 437 30,000 -290 Descending Albuquerque Center
Sun 11:16:36 AM 31.3414 -104.0428 280° West 374 430 30,000  Level Albuquerque Center
Sun 11:17:38 AM 31.3625 -104.1892 280° West 380 437 30,000 -293 Level Albuquerque Center
Sun 11:18:39 AM 31.3847 -104.3131 282° West 387 445 29,400 -1,024 Descending Albuquerque Center
Sun 11:19:41 AM 31.4106 -104.4336 284° West 386 444 27,900 -1,403 Descending Albuquerque Center
Sun 11:20:43 AM 31.4353 -104.5536 284° West 383 441 26,500 -1,210 Descending Albuquerque Center
Sun 11:21:45 AM 31.4617 -104.6728 285° West 382 440 25,400 -1,065 Descending Albuquerque Center
Sun 11:22:47 AM 31.4878 -104.7961 284° West 389 448 24,300 -1,171 Descending Albuquerque Center
Sun 11:23:48 AM 31.5183 -104.9472 283° West 399 459 23,000 -1,171 Descending Albuquerque Center
Sun 11:24:50 AM 31.5447 -105.0669 285° West 388 447 21,900 -1,065 Descending Albuquerque Center
Sun 11:25:52 AM 31.5689 -105.1842 284° West 376 433 20,800 -1,055 Descending Albuquerque Center
Sun 11:26:21 AM 31.5772 -105.2506 278° West 368 423 20,300 -1,065 Descending Albuquerque Center
Sun 11:26:54 AM 31.5914 -105.2981 289° West 365 420 19,700 -1,151 Descending Albuquerque Center
Sun 11:27:34 AM 31.6064 -105.3931 281° West 362 417 18,900 -968 Descending Albuquerque Center
Sun 11:27:56 AM 31.6156 -105.4172 294° West 366 421 18,700 -1,082 Descending Albuquerque Center
Sun 11:28:35 AM 31.6361 -105.5053 285° West 361 415 17,800 -1,180 Descending Albuquerque Center
Sun 11:28:57 AM 31.6469 -105.5486 286° West 357 411 17,500 -900 Descending Albuquerque Center
Sun 11:29:35 AM 31.6614 -105.6161 284° West 356 410 16,900 -1,065 Descending Albuquerque Center
Sun 11:29:59 AM 31.6722 -105.6600 286° West 354 407 16,400 -1,377 Descending Albuquerque Center
Sun 11:30:36 AM 31.6878 -105.7344 284° West 351 404 15,500 -1,452 Descending Albuquerque Center
Sun 11:31:01 AM 31.6981 -105.7692 289° West 350 403 14,900 -1,869 Descending Albuquerque Center
Sun 11:31:37 AM 31.7144 -105.8425 285° West 343 395 13,600 -1,935 Descending Albuquerque Center
Sun 11:32:03 AM 31.7222 -105.8756 285° West 341 392 12,900 -2,100 Descending Albuquerque Center
Sun 11:32:37 AM 31.7375 -105.9442 285° West 323 372 11,500 -1,967 Descending Albuquerque Center
Sun 11:33:04 AM 31.7450 -105.9739 287° West 315 362 10,900 -1,574 Descending Albuquerque Center
Sun 11:33:38 AM 31.7589 -106.0364 285° West 285 328 9,900 -1,645 Descending Albuquerque Center
Sun 11:34:06 AM 31.7656 -106.0625 287° West 282 325 9,200 -1,800 Descending Albuquerque Center
Sun 11:34:38 AM 31.7786 -106.1214 285° West 273 314 8,100 -1,645 Descending Albuquerque Center
Sun 11:35:08 AM 31.7844 -106.1492 284° West 275 316 7,500 -1,200 Descending Albuquerque Center

Login

Don't have an account? Register now (free) for customized features, flight alerts, and more!